Weather History for Denali Park, AK

Change the Weather History Date:

Sunday, August 25, 2013

  Actual Average Record
Temperature  
Mean Temperature 44 °F -  
Max Temperature 62 °F 59 °F 81 °F (1979)
Min Temperature 26 °F 36 °F 26 °F (2013)
Degree Days  
Heating Degree Days 21    
Moisture  
Dew Point 31 °F    
Average Humidity 66    
Maximum Humidity 100    
Minimum Humidity 20    
Precipitation  
Precipitation 0.00 in - - ()
Sea Level Pressure  
Sea Level Pressure 29.78 in    
Wind  
Wind Speed 1 mph (North)    
Max Wind Speed 9 mph    
Max Gust Speed -    
Visibility 10 miles    
Events      
Averages and records for this station are not official NWS values.
T = Trace of Precipitation, MM = Missing Value Source: NWS Daily Summary

Daily Weather History Graph

Daily Weather History Graph

Search for Another Location

Airport:

Trip Planner

Search our weather history database for the weather conditions in past years. The results will help you decide how hot, cold, wet, or windy it might be!

Date:

Astronomy

Aug. 25, 2013 Rise Set
Actual Time 6:20 AM AKDT 9:32 PM AKDT
Civil Twilight 5:24 AM AKDT 10:27 PM AKDT
Nautical Twilight 4:01 AM AKDT 11:48 PM AKDT
Astronomical Twilight 2:30 AM AKDT 1:24 AM AKDT
Moon 9:57 PM AKDT (8/25) 1:41 PM AKDT (8/25)
Length of Visible Light 17h 02m
Length of Day
15h 12m
Waning Gibbous, 74% of the Moon is Illuminated
Aug 25
Waning Gibbous
Aug 28
Last Quarter
Sep 5
New
Sep 12
First Quarter
Sep 19
Full

Hourly Weather History & Observations

Time (AKDT) Temp. Windchill Dew Point Humidity Pressure Visibility Wind Dir Wind Speed Gust Speed Precip Events Conditions
12:16 AM 37.4 °F - 35.6 °F 93% 29.88 in 10.0 mi Calm Calm - N/A   Partly Cloudy
12:36 AM 35.6 °F - 33.8 °F 93% 29.88 in 10.0 mi Calm Calm - N/A   Clear
12:56 AM 37.4 °F - 35.6 °F 93% 29.88 in 10.0 mi Calm Calm - N/A   Clear
1:16 AM 37.4 °F 34.9 °F 35.6 °F 93% 29.88 in 10.0 mi NW 3.5 mph - N/A   Clear
1:36 AM 35.6 °F - 35.6 °F 100% 29.87 in 10.0 mi Calm Calm - N/A   Clear
1:56 AM 35.6 °F - 35.6 °F 100% 29.88 in 10.0 mi Calm Calm - N/A   Clear
2:16 AM 39.2 °F 37.0 °F 33.8 °F 81% 29.88 in 10.0 mi West 3.5 mph - N/A   Clear
2:36 AM 35.6 °F - 35.6 °F 100% 29.88 in 10.0 mi Calm Calm - N/A   Clear
2:56 AM 33.8 °F - 33.8 °F 100% 29.88 in 10.0 mi Calm Calm - N/A   Clear
3:16 AM 33.8 °F - 33.8 °F 100% 29.88 in 10.0 mi Calm Calm - N/A   Clear
3:36 AM 32.0 °F - 32.0 °F 100% 29.88 in 10.0 mi Calm Calm - N/A   Clear
3:56 AM 32.0 °F - 32.0 °F 100% 29.87 in 10.0 mi Calm Calm - N/A   Clear
4:16 AM 30.2 °F - 30.2 °F 100% 29.87 in 10.0 mi Calm Calm - N/A   Clear
4:36 AM 30.2 °F - 30.2 °F 100% 29.87 in 10.0 mi Calm Calm - N/A   Clear
4:56 AM 28.4 °F - 28.4 °F 100% 29.86 in 10.0 mi Calm Calm - N/A   Clear
5:16 AM 28.4 °F - 28.4 °F 100% 29.86 in 10.0 mi Calm Calm - N/A   Clear
5:36 AM 28.4 °F - 28.4 °F 100% 29.86 in 10.0 mi Calm Calm - N/A   Clear
5:56 AM 28.4 °F - 26.6 °F 93% 29.86 in 10.0 mi Calm Calm - N/A   Clear
6:16 AM 28.4 °F - 28.4 °F 100% 29.85 in 10.0 mi Calm Calm - N/A   Clear
6:36 AM 28.4 °F - 28.4 °F 100% 29.85 in 10.0 mi Calm Calm - N/A   Clear
6:56 AM 26.6 °F - 26.6 °F 100% 29.85 in 10.0 mi Calm Calm - N/A   Clear
7:16 AM 26.6 °F - 26.6 °F 100% 29.85 in 10.0 mi Calm Calm - N/A   Clear
7:36 AM 28.4 °F - 28.4 °F 100% 29.84 in 10.0 mi Calm Calm - N/A   Clear
7:56 AM 32.0 °F - 30.2 °F 93% 29.84 in 10.0 mi Calm Calm - N/A   Clear
8:16 AM 33.8 °F - 33.8 °F 100% 29.84 in 10.0 mi Calm Calm - N/A   Clear
8:36 AM 35.6 °F - 33.8 °F 93% 29.84 in 10.0 mi Calm Calm - N/A   Clear
8:56 AM 37.4 °F - 33.8 °F 87% 29.83 in 10.0 mi Calm Calm - N/A   Clear
9:16 AM 35.6 °F - 33.8 °F 93% 29.83 in 10.0 mi Calm Calm - N/A   Clear
9:36 AM 37.4 °F - 33.8 °F 87% 29.82 in 10.0 mi Calm Calm - N/A   Clear
9:56 AM 39.2 °F - 33.8 °F 81% 29.82 in 10.0 mi Calm Calm - N/A   Clear
10:16 AM 41.0 °F - 33.8 °F 76% 29.81 in 10.0 mi Calm Calm - N/A   Clear
10:36 AM 42.8 °F - 35.6 °F 76% 29.80 in 10.0 mi Calm Calm - N/A   Clear
10:56 AM 44.6 °F - 35.6 °F 71% 29.80 in 10.0 mi Calm Calm - N/A   Clear
11:16 AM 46.4 °F - 33.8 °F 62% 29.79 in 10.0 mi Calm Calm - N/A   Clear
11:36 AM 48.2 °F - 33.8 °F 58% 29.78 in 10.0 mi Calm Calm - N/A   Clear
11:56 AM 48.2 °F - 32.0 °F 54% 29.77 in 10.0 mi Calm Calm - N/A   Clear
12:16 PM 51.8 °F - 32.0 °F 47% 29.76 in 10.0 mi Calm Calm - N/A   Clear
12:36 PM 51.8 °F - 30.2 °F 44% 29.76 in 10.0 mi Calm Calm - N/A   Clear
12:56 PM 53.6 °F - 28.4 °F 38% 29.75 in 10.0 mi Calm Calm - N/A   Clear
1:16 PM 55.4 °F - 28.4 °F 36% 29.75 in 10.0 mi Calm Calm - N/A   Clear
1:36 PM 55.4 °F - 26.6 °F 33% 29.74 in 10.0 mi Calm Calm - N/A   Clear
1:56 PM 57.2 °F - 26.6 °F 31% 29.74 in 10.0 mi Calm Calm - N/A   Clear
2:16 PM 57.2 °F - 26.6 °F 31% 29.73 in 10.0 mi East 4.6 mph - N/A   Clear
2:36 PM 59.0 °F - 26.6 °F 29% 29.72 in 10.0 mi East 4.6 mph - N/A   Clear
2:56 PM 59.0 °F - 26.6 °F 29% 29.72 in 10.0 mi SSE 3.5 mph - N/A   Clear
3:16 PM 60.8 °F - 24.8 °F 25% 29.71 in 10.0 mi South 3.5 mph - N/A   Clear
3:36 PM 60.8 °F - 24.8 °F 25% 29.71 in 10.0 mi SSW 4.6 mph - N/A   Clear
3:56 PM 60.8 °F - 24.8 °F 25% 29.70 in 10.0 mi Calm Calm - N/A   Clear
4:16 PM 60.8 °F - 26.6 °F 27% 29.70 in 10.0 mi South 3.5 mph - N/A   Clear
4:36 PM 62.6 °F - 24.8 °F 24% 29.69 in 10.0 mi Calm Calm - N/A   Clear
4:56 PM 62.6 °F - 21.2 °F 20% 29.69 in 10.0 mi SW 3.5 mph - N/A   Clear
5:16 PM 62.6 °F - 24.8 °F 24% 29.69 in 10.0 mi SSE 4.6 mph - N/A   Clear
5:36 PM 62.6 °F - 24.8 °F 24% 29.69 in 10.0 mi Calm Calm - N/A   Clear
5:56 PM 62.6 °F - 24.8 °F 24% 29.68 in 10.0 mi ESE 3.5 mph - N/A   Clear
6:16 PM 62.6 °F - 24.8 °F 24% 29.68 in 10.0 mi SSE 3.5 mph - N/A   Clear
6:36 PM 62.6 °F - 26.6 °F 26% 29.68 in 10.0 mi Calm Calm - N/A   Clear
6:56 PM 60.8 °F - 28.4 °F 29% 29.68 in 10.0 mi NE 3.5 mph - N/A   Clear
7:16 PM 60.8 °F - 30.2 °F 31% 29.68 in 10.0 mi North 4.6 mph - N/A   Clear
7:36 PM 57.2 °F - 32.0 °F 38% 29.68 in 10.0 mi NNE 4.6 mph - N/A   Clear
7:56 PM 57.2 °F - 35.6 °F 44% 29.68 in 10.0 mi NNE 6.9 mph - N/A   Clear
8:16 PM 55.4 °F - 37.4 °F 51% 29.69 in 10.0 mi North 5.8 mph - N/A   Clear
8:36 PM 53.6 °F - 37.4 °F 54% 29.69 in 10.0 mi North 6.9 mph - N/A   Clear
8:56 PM 53.6 °F - 37.4 °F 54% 29.70 in 10.0 mi North 4.6 mph - N/A   Clear
9:16 PM 51.8 °F - 37.4 °F 58% 29.70 in 10.0 mi North 9.2 mph - N/A   Clear
9:36 PM 51.8 °F - 37.4 °F 58% 29.71 in 10.0 mi North 5.8 mph - N/A   Clear
9:56 PM 50.0 °F - 37.4 °F 62% 29.71 in 10.0 mi North 4.6 mph - N/A   Clear
10:16 PM 50.0 °F - 35.6 °F 58% 29.72 in 10.0 mi NW 3.5 mph - N/A   Clear
10:36 PM 44.6 °F 43.1 °F 35.6 °F 71% 29.72 in 10.0 mi West 3.5 mph - N/A   Clear
10:56 PM 42.8 °F 41.1 °F 35.6 °F 76% 29.73 in 10.0 mi West 3.5 mph - N/A   Clear
11:16 PM 42.8 °F - 35.6 °F 76% 29.73 in 10.0 mi Calm Calm - N/A   Clear
11:36 PM 39.2 °F - 33.8 °F 81% 29.74 in 10.0 mi Calm Calm - N/A   Clear
11:56 PM 39.2 °F - 33.8 °F 81% 29.74 in 10.0 mi Calm Calm - N/A   Clear